createdAt,value
2019-02-21T00:01:35.817Z,100326.02
2019-02-21T00:04:03.287Z,100333.20
2019-02-21T00:06:30.747Z,100330.62
2019-02-21T00:08:58.214Z,100330.02
2019-02-21T00:11:25.681Z,100329.56
2019-02-21T00:13:53.153Z,100331.07
2019-02-21T00:16:20.622Z,100330.30
2019-02-21T00:18:49.230Z,100342.09
2019-02-21T00:21:16.743Z,100344.95
2019-02-21T00:23:44.235Z,100339.53
2019-02-21T00:26:11.699Z,100342.80
2019-02-21T00:28:39.137Z,100346.54
2019-02-21T00:31:06.607Z,100344.75
2019-02-21T00:33:34.081Z,100343.18
2019-02-21T00:36:01.547Z,100346.45
2019-02-21T00:38:28.994Z,100342.94
2019-02-21T00:40:56.470Z,100339.99
2019-02-21T00:43:23.933Z,100328.84
2019-02-21T00:45:51.378Z,100332.88
2019-02-21T00:48:18.856Z,100330.16
2019-02-21T00:50:46.893Z,100331.20
2019-02-21T00:53:14.385Z,100328.84
2019-02-21T00:55:41.833Z,100331.03
2019-02-21T00:58:09.294Z,100330.89
2019-02-21T01:00:46.136Z,100330.45
2019-02-21T01:03:04.207Z,100328.27
2019-02-21T01:05:31.664Z,100330.25
2019-02-21T01:07:59.165Z,100331.73
2019-02-21T01:10:26.607Z,100326.89
2019-02-21T01:12:54.069Z,100329.60
2019-02-21T01:15:21.557Z,100331.06
2019-02-21T01:17:49.005Z,100334.57
2019-02-21T01:20:17.452Z,100338.80
2019-02-21T01:22:44.922Z,100345.39
2019-02-21T01:25:12.419Z,100344.84
2019-02-21T01:27:39.891Z,100341.98
2019-02-21T01:30:07.344Z,100345.31
2019-02-21T01:32:34.823Z,100350.55
2019-02-21T01:35:02.254Z,100347.70
2019-02-21T01:37:29.739Z,100345.25
2019-02-21T01:39:57.217Z,100348.87
2019-02-21T01:42:26.004Z,100350.09
2019-02-21T01:44:53.577Z,100349.53
2019-02-21T01:47:21.045Z,100344.61
2019-02-21T01:49:48.517Z,100344.03
2019-02-21T01:52:15.987Z,100347.40
2019-02-21T01:54:43.474Z,100342.02
2019-02-21T01:57:10.953Z,100338.48
2019-02-21T01:59:38.429Z,100342.02
2019-02-21T02:02:05.867Z,100336.66
2019-02-21T02:04:33.327Z,100341.85
2019-02-21T02:07:00.792Z,100342.13
2019-02-21T02:09:28.242Z,100338.13
2019-02-21T02:11:55.700Z,100346.32
2019-02-21T02:14:23.151Z,100344.64
2019-02-21T02:16:50.617Z,100348.55
2019-02-21T02:19:18.496Z,100346.59
2019-02-21T02:21:45.985Z,100351.41
2019-02-21T02:24:14.842Z,100351.92
2019-02-21T02:26:41.832Z,100363.41
2019-02-21T02:29:09.385Z,100359.91
2019-02-21T02:31:36.833Z,100359.20
2019-02-21T02:34:04.299Z,100365.70
2019-02-21T02:36:31.758Z,100367.73
2019-02-21T02:38:59.227Z,100363.94
2019-02-21T02:41:26.671Z,100365.20
2019-02-21T02:43:54.097Z,100360.48
2019-02-21T02:46:21.539Z,100371.39
2019-02-21T02:48:49.069Z,100372.56
2019-02-21T02:51:16.559Z,100365.65
2019-02-21T02:53:44.020Z,100374.14
2019-02-21T02:56:11.489Z,100371.64
2019-02-21T02:58:38.984Z,100373.72
2019-02-21T03:01:07.503Z,100376.85
2019-02-21T03:03:35.125Z,100374.84
2019-02-21T03:06:02.641Z,100373.06
2019-02-21T03:08:30.082Z,100383.35
2019-02-21T03:10:57.519Z,100377.67
2019-02-21T03:13:24.979Z,100373.30
2019-02-21T03:15:52.409Z,100381.88
2019-02-21T03:18:19.853Z,100373.06
2019-02-21T03:20:47.309Z,100380.72
2019-02-21T03:23:14.795Z,100375.84
2019-02-21T03:25:42.259Z,100379.77
2019-02-21T03:28:09.725Z,100372.64
2019-02-21T03:30:37.173Z,100374.72
2019-02-21T03:33:04.651Z,100380.89
2019-02-21T03:35:33.677Z,100375.78
2019-02-21T03:38:01.122Z,100375.80
2019-02-21T03:40:28.588Z,100373.65
2019-02-21T03:42:56.127Z,100376.99
2019-02-21T03:45:23.551Z,100370.24
2019-02-21T03:47:51.009Z,100367.28
2019-02-21T03:50:18.497Z,100367.98
2019-02-21T03:52:45.984Z,100373.73
2019-02-21T03:55:13.443Z,100373.41
2019-02-21T03:57:40.898Z,100374.61
2019-02-21T04:00:08.381Z,100373.20
2019-02-21T04:02:35.849Z,100375.73
2019-02-21T04:05:03.375Z,100377.52
2019-02-21T04:07:30.815Z,100375.28
2019-02-21T04:09:58.304Z,100379.08
2019-02-21T04:12:25.751Z,100376.61
2019-02-21T04:14:53.214Z,100379.37
2019-02-21T04:17:20.993Z,100386.38
2019-02-21T04:19:48.620Z,100376.94
2019-02-21T04:22:16.123Z,100380.58
2019-02-21T04:24:43.575Z,100370.43
2019-02-21T04:27:11.032Z,100363.32
2019-02-21T04:29:38.530Z,100366.03
2019-02-21T04:32:16.659Z,100368.59
2019-02-21T04:34:33.470Z,100363.62
2019-02-21T04:37:00.946Z,100361.84
2019-02-21T04:39:28.407Z,100359.28
2019-02-21T04:41:55.912Z,100359.83
2019-02-21T04:44:23.379Z,100362.63
2019-02-21T04:46:51.633Z,100359.76
2019-02-21T04:49:19.059Z,100350.63
2019-02-21T04:51:46.547Z,100350.25
2019-02-21T04:54:13.978Z,100343.87
2019-02-21T04:56:41.498Z,100354.53
2019-02-21T04:59:08.968Z,100344.56
2019-02-21T05:01:36.443Z,100342.67
2019-02-21T05:04:04.931Z,100345.64
2019-02-21T05:06:31.372Z,100344.96
2019-02-21T05:08:58.861Z,100345.96
2019-02-21T05:11:26.335Z,100346.09
2019-02-21T05:13:54.077Z,100349.17
2019-02-21T05:16:22.324Z,100349.07
2019-02-21T05:18:49.809Z,100343.42
2019-02-21T05:21:17.269Z,100350.88
2019-02-21T05:23:44.738Z,100346.70
2019-02-21T05:26:12.186Z,100349.48
2019-02-21T05:28:41.280Z,100346.59
2019-02-21T05:31:22.922Z,100347.34
2019-02-21T05:33:50.878Z,100348.87
2019-02-21T05:36:21.325Z,100344.38
2019-02-21T05:39:07.511Z,100350.02
2019-02-21T05:41:35.755Z,100350.89
2019-02-21T05:44:08.920Z,100350.56
2019-02-21T05:46:37.899Z,100344.70
2019-02-21T05:49:11.484Z,100353.03
2019-02-21T05:51:38.075Z,100360.19
2019-02-21T05:54:07.072Z,100359.83
2019-02-21T05:56:35.386Z,100358.11
2019-02-21T05:59:05.652Z,100357.50
2019-02-21T06:01:33.878Z,100355.17
2019-02-21T06:04:19.399Z,100358.51
2019-02-21T06:06:45.470Z,100355.78
2019-02-21T06:09:12.930Z,100360.17
2019-02-21T06:11:42.222Z,100362.80
2019-02-21T06:14:11.416Z,100360.04
2019-02-21T06:16:40.728Z,100365.70
2019-02-21T06:19:09.124Z,100374.92
2019-02-21T06:21:38.137Z,100373.70
2019-02-21T06:24:11.258Z,100372.56
2019-02-21T06:26:39.626Z,100372.02
2019-02-21T06:29:06.685Z,100372.58
2019-02-21T06:31:34.195Z,100374.75
2019-02-21T06:34:01.781Z,100377.34
2019-02-21T06:36:29.264Z,100382.03
2019-02-21T06:38:56.719Z,100392.91
2019-02-21T06:41:24.213Z,100384.06
2019-02-21T06:43:52.692Z,100387.58
2019-02-21T06:46:19.271Z,100382.78
2019-02-21T06:48:46.725Z,100386.77
2019-02-21T06:51:14.252Z,100383.69
2019-02-21T06:53:41.638Z,100388.96
2019-02-21T06:56:09.096Z,100388.97
2019-02-21T06:58:36.540Z,100390.38
2019-02-21T07:01:03.970Z,100393.89
2019-02-21T07:03:31.461Z,100397.69
2019-02-21T07:05:58.915Z,100408.09
2019-02-21T07:08:26.464Z,100406.06
2019-02-21T07:11:05.457Z,100402.67
2019-02-21T07:13:26.466Z,100401.64
2019-02-21T07:15:49.495Z,100408.80
2019-02-21T07:18:17.037Z,100410.67
2019-02-21T07:20:44.538Z,100400.41
2019-02-21T07:23:12.016Z,100408.41
2019-02-21T07:25:47.627Z,100407.09
2019-02-21T07:28:16.092Z,100406.43
2019-02-21T07:30:43.086Z,100405.12
2019-02-21T07:33:10.087Z,100412.36
2019-02-21T07:35:37.557Z,100409.16
2019-02-21T07:38:05.021Z,100418.39
2019-02-21T07:40:32.486Z,100421.47
2019-02-21T07:42:59.914Z,100425.12
2019-02-21T07:45:27.402Z,100419.06
2019-02-21T07:47:55.349Z,100421.27
2019-02-21T07:50:23.271Z,100426.89
2019-02-21T07:53:01.538Z,100428.69
2019-02-21T07:55:17.853Z,100432.36
2019-02-21T07:57:45.326Z,100432.70
2019-02-21T08:00:12.800Z,100433.30
2019-02-21T08:02:40.271Z,100433.98
2019-02-21T08:05:07.713Z,100435.28
2019-02-21T08:07:35.162Z,100437.55
2019-02-21T08:10:02.651Z,100443.83
2019-02-21T08:12:30.111Z,100447.34
2019-02-21T08:14:57.578Z,100443.05
2019-02-21T08:17:27.826Z,100449.06
2019-02-21T08:19:53.357Z,100454.54
2019-02-21T08:22:20.890Z,100453.22
2019-02-21T08:24:48.376Z,100459.83
2019-02-21T08:27:15.812Z,100454.84
2019-02-21T08:29:43.263Z,100455.11
2019-02-21T08:32:10.699Z,100460.73
2019-02-21T08:34:39.138Z,100465.33
2019-02-21T08:37:08.742Z,100463.16
2019-02-21T08:39:34.065Z,100467.69
2019-02-21T08:42:01.524Z,100467.88
2019-02-21T08:44:29.142Z,100467.88
2019-02-21T08:46:56.566Z,100475.33
2019-02-21T08:49:23.995Z,100471.88
2019-02-21T08:51:51.487Z,100477.59
2019-02-21T08:54:18.941Z,100475.27
2019-02-21T08:56:46.407Z,100480.74
2019-02-21T08:59:13.889Z,100479.90
2019-02-21T09:01:41.348Z,100480.23
2019-02-21T09:04:13.553Z,100472.17
2019-02-21T09:06:36.270Z,100471.56
2019-02-21T09:09:03.746Z,100473.62
2019-02-21T09:11:31.187Z,100479.52
2019-02-21T09:13:58.647Z,100486.56
2019-02-21T09:16:27.027Z,100475.41
2019-02-21T09:18:54.507Z,100478.81
2019-02-21T09:21:21.977Z,100483.55
2019-02-21T09:23:49.945Z,100492.44
2019-02-21T09:26:17.396Z,100496.04
2019-02-21T09:28:44.866Z,100499.31
2019-02-21T09:31:12.320Z,100501.53
2019-02-21T09:33:39.786Z,100498.25
2019-02-21T09:36:07.249Z,100494.77
2019-02-21T09:38:34.925Z,100495.41
2019-02-21T09:41:02.236Z,100506.16
2019-02-21T09:43:29.691Z,100507.81
2019-02-21T09:45:59.139Z,100525.34
2019-02-21T09:48:27.498Z,100524.50
2019-02-21T09:50:54.978Z,100518.84
2019-02-21T09:53:22.488Z,100519.24
2019-02-21T09:55:50.521Z,100526.60
2019-02-21T09:58:17.420Z,100525.05
2019-02-21T10:00:44.870Z,100517.45
2019-02-21T10:03:12.327Z,100508.30
2019-02-21T10:05:39.811Z,100511.63
2019-02-21T10:08:09.137Z,100511.44
2019-02-21T10:10:36.733Z,100515.94
2019-02-21T10:13:04.367Z,100517.17
2019-02-21T10:15:31.850Z,100520.11
2019-02-21T10:17:59.309Z,100522.70
2019-02-21T10:20:28.089Z,100524.36
2019-02-21T10:22:55.538Z,100519.25
2019-02-21T10:25:23.394Z,100536.24
2019-02-21T10:27:50.515Z,100541.56
2019-02-21T10:30:18.006Z,100544.85
2019-02-21T10:32:45.493Z,100538.11
2019-02-21T10:35:12.943Z,100536.42
2019-02-21T10:37:40.425Z,100521.20
2019-02-21T10:40:07.878Z,100518.62
2019-02-21T10:42:35.343Z,100506.03
2019-02-21T10:45:03.511Z,100516.67
2019-02-21T10:47:30.266Z,100514.78
2019-02-21T10:49:58.770Z,100525.88
2019-02-21T10:52:26.235Z,100510.95
2019-02-21T10:54:53.706Z,100506.33
2019-02-21T10:57:21.135Z,100506.19
2019-02-21T10:59:48.596Z,100506.24
2019-02-21T11:02:16.063Z,100504.35
2019-02-21T11:04:54.147Z,100512.56
2019-02-21T11:07:10.988Z,100520.89
2019-02-21T11:09:38.439Z,100517.71
2019-02-21T11:12:05.910Z,100507.36
2019-02-21T11:14:33.396Z,100500.16
2019-02-21T11:17:00.895Z,100496.09
2019-02-21T11:19:29.241Z,100495.86
2019-02-21T11:21:56.710Z,100491.14
2019-02-21T11:24:24.188Z,100490.77
2019-02-21T11:26:51.632Z,100492.62
2019-02-21T11:29:19.098Z,100487.67
2019-02-21T11:31:46.573Z,100492.56
2019-02-21T11:34:14.018Z,100489.16
2019-02-21T11:36:41.481Z,100492.60
2019-02-21T11:39:08.951Z,100498.17
2019-02-21T11:41:37.373Z,100496.19
2019-02-21T11:44:04.904Z,100496.09
2019-02-21T11:46:32.335Z,100498.54
2019-02-21T11:48:59.791Z,100501.55
2019-02-21T11:51:27.275Z,100507.56
2019-02-21T11:53:54.805Z,100508.83
2019-02-21T11:56:22.310Z,100524.33
2019-02-21T11:58:49.790Z,100506.52
2019-02-21T12:01:17.236Z,100511.84
2019-02-21T12:03:44.695Z,100512.81
2019-02-21T12:06:12.151Z,100505.10
2019-02-21T12:08:39.602Z,100508.55
2019-02-21T12:11:07.075Z,100498.21
2019-02-21T12:13:34.536Z,100500.69
2019-02-21T12:16:02.009Z,100502.17
2019-02-21T12:18:30.244Z,100497.91
2019-02-21T12:20:57.751Z,100491.55
2019-02-21T12:23:25.249Z,100491.83
2019-02-21T12:25:52.754Z,100488.79
2019-02-21T12:28:20.233Z,100482.41
2019-02-21T12:30:48.219Z,100473.88
2019-02-21T12:33:15.858Z,100479.47
2019-02-21T12:35:43.323Z,100472.89
2019-02-21T12:38:10.776Z,100469.89
2019-02-21T12:40:38.336Z,100480.52
2019-02-21T12:43:05.713Z,100475.34
2019-02-21T12:45:33.184Z,100480.00
2019-02-21T12:48:00.817Z,100481.11
2019-02-21T12:50:28.337Z,100481.22
2019-02-21T12:52:55.789Z,100475.22
2019-02-21T12:55:29.250Z,100466.77
2019-02-21T12:57:50.710Z,100457.41
2019-02-21T13:00:19.035Z,100483.91
2019-02-21T13:02:46.503Z,100473.03
2019-02-21T13:05:13.987Z,100481.45
2019-02-21T13:07:41.475Z,100486.03
2019-02-21T13:10:11.733Z,100480.27
2019-02-21T13:12:39.243Z,100487.24
2019-02-21T13:15:06.705Z,100488.72
2019-02-21T13:17:34.211Z,100490.31
2019-02-21T13:20:01.676Z,100477.22
2019-02-21T13:22:29.135Z,100483.08
2019-02-21T13:24:56.577Z,100489.92
2019-02-21T13:27:24.039Z,100492.64
2019-02-21T13:29:54.475Z,100492.13
2019-02-21T13:32:18.964Z,100497.33
2019-02-21T13:34:46.427Z,100498.44
2019-02-21T13:37:14.213Z,100497.39
2019-02-21T13:39:42.329Z,100507.87
2019-02-21T13:42:09.808Z,100512.48
2019-02-21T13:44:37.278Z,100511.36
2019-02-21T13:47:04.735Z,100517.88
2019-02-21T13:49:32.212Z,100517.71
2019-02-21T13:51:59.651Z,100503.09
2019-02-21T13:54:27.131Z,100503.58
2019-02-21T13:56:54.585Z,100520.67
2019-02-21T13:59:22.043Z,100517.17
2019-02-21T14:01:49.507Z,100510.11
2019-02-21T14:04:16.943Z,100514.73
2019-02-21T14:06:44.405Z,100519.26
2019-02-21T14:09:11.921Z,100523.16
2019-02-21T14:11:39.416Z,100517.02
2019-02-21T14:14:06.872Z,100527.31
2019-02-21T14:16:43.830Z,100518.55
2019-02-21T14:19:02.607Z,100516.22
2019-02-21T14:21:30.096Z,100513.19
2019-02-21T14:23:57.541Z,100522.08
2019-02-21T14:26:25.036Z,100523.85
2019-02-21T14:28:52.485Z,100511.37
2019-02-21T14:31:19.938Z,100521.13
2019-02-21T14:33:47.417Z,100513.62
2019-02-21T14:36:16.785Z,100526.36
2019-02-21T14:38:42.330Z,100516.45
2019-02-21T14:41:09.803Z,100515.86
2019-02-21T14:43:37.290Z,100516.23
2019-02-21T14:46:04.751Z,100516.33
2019-02-21T14:48:33.128Z,100518.98
2019-02-21T14:51:00.597Z,100509.64
2019-02-21T14:53:28.041Z,100505.14
2019-02-21T14:55:55.573Z,100508.55
2019-02-21T14:58:23.019Z,100512.30
2019-02-21T15:00:50.487Z,100508.66
2019-02-21T15:03:21.908Z,100509.29
2019-02-21T15:05:45.440Z,100514.36
2019-02-21T15:08:12.914Z,100513.45
2019-02-21T15:10:40.376Z,100513.03
2019-02-21T15:13:07.862Z,100512.91
2019-02-21T15:15:35.298Z,100514.73
2019-02-21T15:18:07.373Z,100513.01
2019-02-21T15:20:36.897Z,100522.08
2019-02-21T15:22:58.773Z,100520.81
2019-02-21T15:25:26.256Z,100519.42
2019-02-21T15:27:53.714Z,100520.59
2019-02-21T15:30:22.059Z,100517.72
2019-02-21T15:32:49.529Z,100518.31
2019-02-21T15:35:19.263Z,100518.68
2019-02-21T15:37:45.130Z,100509.64
2019-02-21T15:40:12.003Z,100521.41
2019-02-21T15:42:39.489Z,100511.39
2019-02-21T15:45:09.710Z,100518.00
2019-02-21T15:47:35.819Z,100526.67
2019-02-21T15:50:04.395Z,100523.73
2019-02-21T15:52:31.837Z,100522.30
2019-02-21T15:54:59.295Z,100525.18
2019-02-21T15:57:26.762Z,100532.52
2019-02-21T15:59:54.238Z,100531.38
2019-02-21T16:02:21.746Z,100537.48
2019-02-21T16:04:49.847Z,100537.32
2019-02-21T16:07:17.413Z,100542.43
2019-02-21T16:09:44.860Z,100534.20
2019-02-21T16:12:12.556Z,100539.45
2019-02-21T16:14:39.817Z,100542.86
2019-02-21T16:17:07.313Z,100548.09
2019-02-21T16:19:35.717Z,100543.73
2019-02-21T16:22:03.181Z,100551.02
2019-02-21T16:24:30.687Z,100555.06
2019-02-21T16:26:59.937Z,100556.40
2019-02-21T16:29:28.320Z,100556.83
2019-02-21T16:31:55.787Z,100553.33
2019-02-21T16:34:23.251Z,100553.45
2019-02-21T16:37:01.861Z,100550.55
2019-02-21T16:39:18.242Z,100551.51
2019-02-21T16:41:45.711Z,100552.88
2019-02-21T16:44:13.194Z,100553.89
2019-02-21T16:46:40.644Z,100557.95
2019-02-21T16:49:08.663Z,100559.72
2019-02-21T16:51:36.205Z,100561.51
2019-02-21T16:54:03.672Z,100561.37
2019-02-21T16:56:31.138Z,100562.31
2019-02-21T16:58:58.644Z,100565.66
2019-02-21T17:01:26.075Z,100570.89
2019-02-21T17:03:53.562Z,100571.33
2019-02-21T17:06:21.037Z,100577.95
2019-02-21T17:08:48.502Z,100577.66
2019-02-21T17:11:18.110Z,100583.63
2019-02-21T17:13:45.779Z,100587.85
2019-02-21T17:16:13.223Z,100592.86
2019-02-21T17:18:40.701Z,100598.42
2019-02-21T17:21:08.153Z,100592.97
2019-02-21T17:23:36.123Z,100596.37
2019-02-21T17:26:03.587Z,100599.03
2019-02-21T17:28:31.067Z,100600.13
2019-02-21T17:30:58.501Z,100605.78
2019-02-21T17:33:25.988Z,100606.16
2019-02-21T17:35:53.440Z,100609.16
2019-02-21T17:38:20.901Z,100598.66
2019-02-21T17:40:48.379Z,100601.94
2019-02-21T17:43:16.066Z,100602.40
2019-02-21T17:45:43.882Z,100608.98
2019-02-21T17:48:12.724Z,100622.36
2019-02-21T17:50:40.663Z,100632.03
2019-02-21T17:53:09.409Z,100640.02
2019-02-21T17:55:37.827Z,100630.44
2019-02-21T17:58:06.097Z,100633.91
2019-02-21T18:00:41.073Z,100640.64
2019-02-21T18:03:08.543Z,100634.44
2019-02-21T18:05:35.989Z,100640.49
2019-02-21T18:08:03.497Z,100645.68
2019-02-21T18:10:30.978Z,100645.68
2019-02-21T18:12:58.462Z,100643.91
2019-02-21T18:15:25.944Z,100644.73
2019-02-21T18:17:53.454Z,100648.45
2019-02-21T18:20:20.941Z,100644.63
2019-02-21T18:22:49.035Z,100641.63
2019-02-21T18:25:16.620Z,100644.78
2019-02-21T18:27:44.161Z,100647.37
2019-02-21T18:30:11.871Z,100652.91
2019-02-21T18:32:40.013Z,100646.06
2019-02-21T18:35:07.878Z,100657.05
2019-02-21T18:37:46.670Z,100651.38
2019-02-21T18:40:04.176Z,100655.94
2019-02-21T18:42:31.900Z,100657.09
2019-02-21T18:44:59.404Z,100662.39
2019-02-21T18:47:26.882Z,100661.36
2019-02-21T18:49:54.355Z,100664.13
2019-02-21T18:52:21.977Z,100665.92
2019-02-21T18:54:49.860Z,100672.78
2019-02-21T18:57:17.474Z,100675.58
2019-02-21T18:59:45.135Z,100682.05
2019-02-21T19:02:12.615Z,100686.16
2019-02-21T19:04:40.050Z,100692.74
2019-02-21T19:07:08.567Z,100695.00
2019-02-21T19:09:36.038Z,100692.20
2019-02-21T19:12:04.574Z,100682.28
2019-02-21T19:14:32.095Z,100693.65
2019-02-21T19:16:59.568Z,100693.47
2019-02-21T19:19:27.024Z,100688.93
2019-02-21T19:21:54.488Z,100692.86
2019-02-21T19:24:22.006Z,100691.17
2019-02-21T19:26:49.471Z,100695.16
2019-02-21T19:29:16.956Z,100697.71
2019-02-21T19:31:44.501Z,100692.41
2019-02-21T19:34:11.962Z,100693.38
2019-02-21T19:36:39.427Z,100695.33
2019-02-21T19:39:06.900Z,100693.82
2019-02-21T19:41:34.419Z,100696.46
2019-02-21T19:44:08.743Z,100706.15
2019-02-21T19:46:29.382Z,100701.22
2019-02-21T19:48:56.940Z,100704.02
2019-02-21T19:51:24.428Z,100708.80
2019-02-21T19:53:51.900Z,100712.73
2019-02-21T19:56:19.408Z,100705.48
2019-02-21T19:58:46.879Z,100713.69
2019-02-21T20:01:14.336Z,100720.96
2019-02-21T20:03:41.887Z,100718.84
2019-02-21T20:06:09.749Z,100727.52
2019-02-21T20:08:37.242Z,100729.88
2019-02-21T20:11:04.736Z,100731.53
2019-02-21T20:13:32.246Z,100732.78
2019-02-21T20:15:59.760Z,100738.42
2019-02-21T20:18:27.252Z,100742.22
2019-02-21T20:20:56.108Z,100739.89
2019-02-21T20:23:23.638Z,100746.94
2019-02-21T20:25:51.116Z,100749.19
2019-02-21T20:28:18.628Z,100747.41
2019-02-21T20:30:46.117Z,100749.73
2019-02-21T20:33:13.604Z,100757.67
2019-02-21T20:35:41.078Z,100758.06
2019-02-21T20:38:08.519Z,100765.23
2019-02-21T20:40:35.970Z,100773.77
2019-02-21T20:43:03.596Z,100779.36
2019-02-21T20:45:31.081Z,100781.52
2019-02-21T20:47:58.566Z,100782.45
2019-02-21T20:50:26.065Z,100780.44
2019-02-21T20:52:53.529Z,100786.44
2019-02-21T20:55:21.046Z,100787.03
2019-02-21T20:57:48.724Z,100789.52
2019-02-21T21:00:16.222Z,100794.94
2019-02-21T21:02:43.684Z,100794.63
2019-02-21T21:05:11.309Z,100797.67
2019-02-21T21:07:38.760Z,100804.93
2019-02-21T21:10:06.215Z,100810.44
2019-02-21T21:12:33.717Z,100809.38
2019-02-21T21:15:01.210Z,100810.27
2019-02-21T21:17:28.663Z,100803.55
2019-02-21T21:19:56.146Z,100811.91
2019-02-21T21:22:23.590Z,100813.11
2019-02-21T21:24:51.091Z,100816.90
2019-02-21T21:27:18.828Z,100817.98
2019-02-21T21:29:46.333Z,100823.47
2019-02-21T21:32:13.841Z,100823.09
2019-02-21T21:34:41.798Z,100829.34
2019-02-21T21:37:09.282Z,100830.19
2019-02-21T21:39:36.732Z,100830.04
2019-02-21T21:42:04.254Z,100830.11
2019-02-21T21:44:31.705Z,100830.93
2019-02-21T21:46:59.191Z,100832.88
2019-02-21T21:49:26.683Z,100838.34
2019-02-21T21:51:54.154Z,100838.62
2019-02-21T21:54:21.796Z,100833.61
2019-02-21T21:56:49.374Z,100831.64
2019-02-21T21:59:16.979Z,100834.19
2019-02-21T22:01:44.483Z,100838.83
2019-02-21T22:04:12.585Z,100838.22
2019-02-21T22:06:40.107Z,100835.38
2019-02-21T22:09:07.659Z,100838.13
2019-02-21T22:11:35.257Z,100838.39
2019-02-21T22:14:02.802Z,100840.81
2019-02-21T22:16:30.309Z,100845.48
2019-02-21T22:18:57.767Z,100849.72
2019-02-21T22:21:25.272Z,100843.02
2019-02-21T22:23:52.862Z,100850.55
2019-02-21T22:26:21.478Z,100853.91
2019-02-21T22:28:49.040Z,100863.72
2019-02-21T22:31:16.507Z,100861.08
2019-02-21T22:33:43.996Z,100856.62
2019-02-21T22:36:12.295Z,100850.11
2019-02-21T22:38:39.815Z,100843.47
2019-02-21T22:41:07.336Z,100846.41
2019-02-21T22:43:34.842Z,100855.54
2019-02-21T22:46:02.336Z,100859.55
2019-02-21T22:48:29.948Z,100861.45
2019-02-21T22:50:57.465Z,100865.39
2019-02-21T22:53:24.952Z,100866.59
2019-02-21T22:55:52.452Z,100873.51
2019-02-21T22:58:19.925Z,100865.38
2019-02-21T23:00:53.721Z,100865.55
2019-02-21T23:03:21.215Z,100866.47
2019-02-21T23:06:11.211Z,100863.58
2019-02-21T23:08:47.156Z,100869.61
2019-02-21T23:11:14.644Z,100873.98
2019-02-21T23:13:42.168Z,100876.56
2019-02-21T23:16:09.594Z,100884.77
2019-02-21T23:18:37.032Z,100884.30
2019-02-21T23:21:04.472Z,100889.50
2019-02-21T23:23:31.955Z,100893.78
2019-02-21T23:25:59.397Z,100891.83
2019-02-21T23:28:26.859Z,100893.75
2019-02-21T23:30:54.307Z,100894.78
2019-02-21T23:33:21.791Z,100888.11
2019-02-21T23:35:49.262Z,100895.11
2019-02-21T23:38:16.736Z,100888.63
2019-02-21T23:40:44.440Z,100887.50
2019-02-21T23:43:11.906Z,100882.84
2019-02-21T23:45:40.027Z,100888.02
2019-02-21T23:48:07.542Z,100882.80
2019-02-21T23:50:35.004Z,100889.20
2019-02-21T23:53:02.484Z,100892.33
2019-02-21T23:55:29.940Z,100891.80
2019-02-21T23:57:57.390Z,100893.41
